sensor_id;sensor_type;location;lat;lon;timestamp;P1;durP1;ratioP1;P2;durP2;ratioP2
28529;SDS011;15737;49.760;6.632;2023-05-24T00:00:39;3.33;;;0.73;;
28529;SDS011;15737;49.760;6.632;2023-05-24T00:03:05;4.97;;;1.20;;
28529;SDS011;15737;49.760;6.632;2023-05-24T00:05:31;2.67;;;1.60;;
28529;SDS011;15737;49.760;6.632;2023-05-24T00:07:57;2.80;;;1.10;;
28529;SDS011;15737;49.760;6.632;2023-05-24T00:10:23;2.60;;;1.30;;
28529;SDS011;15737;49.760;6.632;2023-05-24T00:12:49;2.33;;;0.67;;
28529;SDS011;15737;49.760;6.632;2023-05-24T00:15:14;1.17;;;1.07;;
28529;SDS011;15737;49.760;6.632;2023-05-24T00:17:40;2.40;;;1.23;;
28529;SDS011;15737;49.760;6.632;2023-05-24T00:20:09;2.00;;;1.43;;
28529;SDS011;15737;49.760;6.632;2023-05-24T00:25:02;3.87;;;1.50;;
28529;SDS011;15737;49.760;6.632;2023-05-24T00:27:29;1.37;;;1.07;;
28529;SDS011;15737;49.760;6.632;2023-05-24T00:29:55;1.07;;;1.03;;
28529;SDS011;15737;49.760;6.632;2023-05-24T00:32:20;3.13;;;1.03;;
28529;SDS011;15737;49.760;6.632;2023-05-24T00:34:46;1.30;;;0.90;;
28529;SDS011;15737;49.760;6.632;2023-05-24T00:37:11;1.40;;;1.23;;
28529;SDS011;15737;49.760;6.632;2023-05-24T00:39:37;1.13;;;1.10;;
28529;SDS011;15737;49.760;6.632;2023-05-24T00:42:03;0.57;;;0.57;;
28529;SDS011;15737;49.760;6.632;2023-05-24T00:44:29;7.10;;;1.97;;
28529;SDS011;15737;49.760;6.632;2023-05-24T00:46:55;4.00;;;1.17;;
28529;SDS011;15737;49.760;6.632;2023-05-24T00:49:21;1.60;;;0.87;;
28529;SDS011;15737;49.760;6.632;2023-05-24T00:51:47;4.03;;;1.63;;
28529;SDS011;15737;49.760;6.632;2023-05-24T00:54:14;1.60;;;1.00;;
28529;SDS011;15737;49.760;6.632;2023-05-24T00:56:40;8.80;;;1.20;;
28529;SDS011;15737;49.760;6.632;2023-05-24T00:59:07;1.70;;;1.07;;
28529;SDS011;15737;49.760;6.632;2023-05-24T01:01:33;1.17;;;1.07;;
28529;SDS011;15737;49.760;6.632;2023-05-24T01:03:59;1.57;;;1.47;;
28529;SDS011;15737;49.760;6.632;2023-05-24T01:06:24;3.80;;;1.30;;
28529;SDS011;15737;49.760;6.632;2023-05-24T01:17:31;2.87;;;1.70;;
28529;SDS011;15737;49.760;6.632;2023-05-24T01:20:10;4.77;;;1.93;;
28529;SDS011;15737;49.760;6.632;2023-05-24T01:26:17;4.40;;;1.13;;
28529;SDS011;15737;49.760;6.632;2023-05-24T01:28:37;2.47;;;1.30;;
28529;SDS011;15737;49.760;6.632;2023-05-24T01:31:04;2.10;;;1.17;;
28529;SDS011;15737;49.760;6.632;2023-05-24T01:33:31;0.90;;;0.80;;
28529;SDS011;15737;49.760;6.632;2023-05-24T01:35:56;3.50;;;1.53;;
28529;SDS011;15737;49.760;6.632;2023-05-24T01:38:22;2.07;;;1.10;;
28529;SDS011;15737;49.760;6.632;2023-05-24T01:40:49;1.23;;;1.10;;
28529;SDS011;15737;49.760;6.632;2023-05-24T01:43:36;3.30;;;1.30;;
28529;SDS011;15737;49.760;6.632;2023-05-24T01:46:11;1.73;;;1.43;;
28529;SDS011;15737;49.760;6.632;2023-05-24T01:49:00;2.40;;;1.13;;
28529;SDS011;15737;49.760;6.632;2023-05-24T01:51:35;1.80;;;1.37;;
28529;SDS011;15737;49.760;6.632;2023-05-24T01:54:05;2.27;;;1.83;;
28529;SDS011;15737;49.760;6.632;2023-05-24T01:56:31;3.40;;;1.10;;
28529;SDS011;15737;49.760;6.632;2023-05-24T01:58:58;4.10;;;1.40;;
28529;SDS011;15737;49.760;6.632;2023-05-24T02:01:25;2.07;;;0.93;;
28529;SDS011;15737;49.760;6.632;2023-05-24T02:03:51;1.00;;;1.00;;
28529;SDS011;15737;49.760;6.632;2023-05-24T02:06:16;1.97;;;1.50;;
28529;SDS011;15737;49.760;6.632;2023-05-24T02:08:42;2.13;;;1.53;;
28529;SDS011;15737;49.760;6.632;2023-05-24T02:11:08;1.70;;;1.03;;
28529;SDS011;15737;49.760;6.632;2023-05-24T02:13:33;3.10;;;1.57;;
28529;SDS011;15737;49.760;6.632;2023-05-24T02:15:59;2.27;;;1.00;;
28529;SDS011;15737;49.760;6.632;2023-05-24T02:18:24;1.30;;;1.30;;
28529;SDS011;15737;49.760;6.632;2023-05-24T02:20:50;1.03;;;1.00;;
28529;SDS011;15737;49.760;6.632;2023-05-24T02:23:15;1.07;;;0.90;;
28529;SDS011;15737;49.760;6.632;2023-05-24T02:25:41;1.03;;;1.03;;
28529;SDS011;15737;49.760;6.632;2023-05-24T02:28:06;3.23;;;1.30;;
28529;SDS011;15737;49.760;6.632;2023-05-24T02:30:32;2.93;;;1.17;;
28529;SDS011;15737;49.760;6.632;2023-05-24T02:32:57;1.23;;;1.23;;
28529;SDS011;15737;49.760;6.632;2023-05-24T02:35:24;1.70;;;1.33;;
28529;SDS011;15737;49.760;6.632;2023-05-24T02:37:50;1.47;;;1.10;;
28529;SDS011;15737;49.760;6.632;2023-05-24T02:40:15;2.10;;;1.43;;
28529;SDS011;15737;49.760;6.632;2023-05-24T02:42:41;2.77;;;1.67;;
28529;SDS011;15737;49.760;6.632;2023-05-24T02:45:06;2.00;;;1.90;;
28529;SDS011;15737;49.760;6.632;2023-05-24T02:47:32;1.97;;;1.87;;
28529;SDS011;15737;49.760;6.632;2023-05-24T02:49:58;22.03;;;20.97;;
28529;SDS011;15737;49.760;6.632;2023-05-24T02:52:23;22.53;;;21.27;;
28529;SDS011;15737;49.760;6.632;2023-05-24T02:54:49;39.00;;;37.17;;
28529;SDS011;15737;49.760;6.632;2023-05-24T02:57:14;54.37;;;51.93;;
28529;SDS011;15737;49.760;6.632;2023-05-24T02:59:40;64.93;;;62.00;;
28529;SDS011;15737;49.760;6.632;2023-05-24T03:02:06;43.60;;;41.57;;
28529;SDS011;15737;49.760;6.632;2023-05-24T03:04:32;34.63;;;33.13;;
28529;SDS011;15737;49.760;6.632;2023-05-24T03:06:57;42.07;;;39.77;;
28529;SDS011;15737;49.760;6.632;2023-05-24T03:09:23;43.40;;;41.43;;
28529;SDS011;15737;49.760;6.632;2023-05-24T03:11:48;35.50;;;33.53;;
28529;SDS011;15737;49.760;6.632;2023-05-24T03:14:15;31.67;;;30.30;;
28529;SDS011;15737;49.760;6.632;2023-05-24T03:16:41;23.30;;;22.30;;
28529;SDS011;15737;49.760;6.632;2023-05-24T03:19:06;19.60;;;18.70;;
28529;SDS011;15737;49.760;6.632;2023-05-24T03:21:32;24.63;;;23.57;;
28529;SDS011;15737;49.760;6.632;2023-05-24T03:23:57;50.40;;;48.20;;
28529;SDS011;15737;49.760;6.632;2023-05-24T03:26:23;41.43;;;39.50;;
28529;SDS011;15737;49.760;6.632;2023-05-24T03:28:49;36.23;;;34.43;;
28529;SDS011;15737;49.760;6.632;2023-05-24T03:31:16;45.87;;;43.70;;
28529;SDS011;15737;49.760;6.632;2023-05-24T03:33:44;64.33;;;61.47;;
28529;SDS011;15737;49.760;6.632;2023-05-24T03:36:10;65.70;;;62.87;;
28529;SDS011;15737;49.760;6.632;2023-05-24T03:38:35;42.57;;;40.50;;
28529;SDS011;15737;49.760;6.632;2023-05-24T03:41:01;51.23;;;48.80;;
28529;SDS011;15737;49.760;6.632;2023-05-24T03:43:26;44.90;;;42.90;;
28529;SDS011;15737;49.760;6.632;2023-05-24T03:45:53;39.23;;;37.40;;
28529;SDS011;15737;49.760;6.632;2023-05-24T03:48:18;36.20;;;34.67;;
28529;SDS011;15737;49.760;6.632;2023-05-24T03:50:47;38.53;;;36.63;;
28529;SDS011;15737;49.760;6.632;2023-05-24T03:53:12;25.30;;;23.80;;
28529;SDS011;15737;49.760;6.632;2023-05-24T03:55:38;25.80;;;24.70;;
28529;SDS011;15737;49.760;6.632;2023-05-24T03:58:03;13.03;;;12.40;;
28529;SDS011;15737;49.760;6.632;2023-05-24T04:00:29;10.47;;;9.93;;
28529;SDS011;15737;49.760;6.632;2023-05-24T04:02:54;9.57;;;9.00;;
28529;SDS011;15737;49.760;6.632;2023-05-24T04:05:20;5.87;;;5.67;;
28529;SDS011;15737;49.760;6.632;2023-05-24T04:07:50;4.67;;;4.27;;
28529;SDS011;15737;49.760;6.632;2023-05-24T04:10:16;5.60;;;5.27;;
28529;SDS011;15737;49.760;6.632;2023-05-24T04:12:42;4.00;;;3.50;;
28529;SDS011;15737;49.760;6.632;2023-05-24T04:15:09;3.50;;;2.93;;
28529;SDS011;15737;49.760;6.632;2023-05-24T04:17:38;3.00;;;2.90;;
28529;SDS011;15737;49.760;6.632;2023-05-24T04:20:04;3.00;;;2.80;;
28529;SDS011;15737;49.760;6.632;2023-05-24T04:22:30;5.23;;;2.57;;
28529;SDS011;15737;49.760;6.632;2023-05-24T04:24:56;2.87;;;1.87;;
28529;SDS011;15737;49.760;6.632;2023-05-24T04:27:21;5.90;;;2.27;;
28529;SDS011;15737;49.760;6.632;2023-05-24T04:29:49;3.27;;;2.07;;
28529;SDS011;15737;49.760;6.632;2023-05-24T04:32:17;2.40;;;2.20;;
28529;SDS011;15737;49.760;6.632;2023-05-24T04:34:43;4.77;;;2.70;;
28529;SDS011;15737;49.760;6.632;2023-05-24T04:37:10;8.03;;;2.23;;
28529;SDS011;15737;49.760;6.632;2023-05-24T04:39:37;4.00;;;1.97;;
28529;SDS011;15737;49.760;6.632;2023-05-24T04:42:03;8.43;;;2.73;;
28529;SDS011;15737;49.760;6.632;2023-05-24T04:44:29;3.30;;;2.17;;
28529;SDS011;15737;49.760;6.632;2023-05-24T04:46:54;7.47;;;2.60;;
28529;SDS011;15737;49.760;6.632;2023-05-24T04:49:20;5.63;;;3.03;;
28529;SDS011;15737;49.760;6.632;2023-05-24T04:51:46;3.87;;;3.57;;
28529;SDS011;15737;49.760;6.632;2023-05-24T04:54:12;6.17;;;5.67;;
28529;SDS011;15737;49.760;6.632;2023-05-24T04:56:37;8.10;;;7.43;;
28529;SDS011;15737;49.760;6.632;2023-05-24T04:59:03;13.93;;;12.93;;
28529;SDS011;15737;49.760;6.632;2023-05-24T05:01:30;17.03;;;16.00;;
28529;SDS011;15737;49.760;6.632;2023-05-24T05:03:56;16.90;;;16.03;;
28529;SDS011;15737;49.760;6.632;2023-05-24T05:06:22;39.20;;;37.43;;
28529;SDS011;15737;49.760;6.632;2023-05-24T05:08:48;38.80;;;36.80;;
28529;SDS011;15737;49.760;6.632;2023-05-24T05:11:14;77.90;;;73.90;;
28529;SDS011;15737;49.760;6.632;2023-05-24T05:13:41;97.50;;;93.03;;
28529;SDS011;15737;49.760;6.632;2023-05-24T05:16:06;39.00;;;37.10;;
28529;SDS011;15737;49.760;6.632;2023-05-24T05:18:31;53.93;;;51.13;;
28529;SDS011;15737;49.760;6.632;2023-05-24T05:20:57;49.33;;;46.80;;
28529;SDS011;15737;49.760;6.632;2023-05-24T05:23:23;2.60;;;1.73;;
28529;SDS011;15737;49.760;6.632;2023-05-24T05:25:48;1.27;;;0.93;;
28529;SDS011;15737;49.760;6.632;2023-05-24T05:28:14;4.10;;;1.47;;
28529;SDS011;15737;49.760;6.632;2023-05-24T05:30:39;4.30;;;1.93;;
28529;SDS011;15737;49.760;6.632;2023-05-24T05:33:05;3.70;;;1.27;;
28529;SDS011;15737;49.760;6.632;2023-05-24T05:35:31;4.47;;;1.43;;
28529;SDS011;15737;49.760;6.632;2023-05-24T05:37:57;2.60;;;1.33;;
28529;SDS011;15737;49.760;6.632;2023-05-24T05:40:22;2.73;;;1.13;;
28529;SDS011;15737;49.760;6.632;2023-05-24T05:42:48;1.90;;;1.40;;
28529;SDS011;15737;49.760;6.632;2023-05-24T05:45:14;3.83;;;1.67;;
28529;SDS011;15737;49.760;6.632;2023-05-24T05:47:39;3.03;;;1.00;;
28529;SDS011;15737;49.760;6.632;2023-05-24T05:50:05;3.07;;;1.37;;
28529;SDS011;15737;49.760;6.632;2023-05-24T05:52:31;3.93;;;1.60;;
28529;SDS011;15737;49.760;6.632;2023-05-24T05:54:57;2.40;;;1.10;;
28529;SDS011;15737;49.760;6.632;2023-05-24T05:57:24;1.20;;;1.10;;
28529;SDS011;15737;49.760;6.632;2023-05-24T05:59:49;4.33;;;1.17;;
28529;SDS011;15737;49.760;6.632;2023-05-24T06:02:15;3.53;;;1.07;;
28529;SDS011;15737;49.760;6.632;2023-05-24T06:04:42;2.00;;;1.27;;
28529;SDS011;15737;49.760;6.632;2023-05-24T06:07:09;4.30;;;1.50;;
28529;SDS011;15737;49.760;6.632;2023-05-24T06:09:34;2.93;;;1.37;;
28529;SDS011;15737;49.760;6.632;2023-05-24T06:12:00;2.53;;;0.90;;
28529;SDS011;15737;49.760;6.632;2023-05-24T06:14:25;6.37;;;1.30;;
28529;SDS011;15737;49.760;6.632;2023-05-24T06:16:51;3.80;;;1.50;;
28529;SDS011;15737;49.760;6.632;2023-05-24T06:19:18;6.07;;;1.60;;
28529;SDS011;15737;49.760;6.632;2023-05-24T06:21:44;2.05;;;1.10;;
28529;SDS011;15737;49.760;6.632;2023-05-24T06:24:12;2.87;;;1.00;;
28529;SDS011;15737;49.760;6.632;2023-05-24T06:26:39;3.92;;;1.10;;
28529;SDS011;15737;49.760;6.632;2023-05-24T06:29:05;2.40;;;1.27;;
28529;SDS011;15737;49.760;6.632;2023-05-24T06:31:31;4.50;;;1.10;;
28529;SDS011;15737;49.760;6.632;2023-05-24T06:33:57;5.20;;;1.70;;
28529;SDS011;15737;49.760;6.632;2023-05-24T06:36:22;1.42;;;1.10;;
28529;SDS011;15737;49.760;6.632;2023-05-24T06:38:48;3.42;;;1.23;;
28529;SDS011;15737;49.760;6.632;2023-05-24T06:41:13;3.72;;;1.20;;
28529;SDS011;15737;49.760;6.632;2023-05-24T06:43:39;5.15;;;1.27;;
28529;SDS011;15737;49.760;6.632;2023-05-24T06:46:05;4.55;;;1.58;;
28529;SDS011;15737;49.760;6.632;2023-05-24T06:48:31;4.57;;;1.50;;
28529;SDS011;15737;49.760;6.632;2023-05-24T06:50:57;2.67;;;1.25;;
28529;SDS011;15737;49.760;6.632;2023-05-24T06:53:22;7.30;;;2.45;;
28529;SDS011;15737;49.760;6.632;2023-05-24T06:55:48;3.87;;;1.43;;
28529;SDS011;15737;49.760;6.632;2023-05-24T06:58:13;3.33;;;1.03;;
28529;SDS011;15737;49.760;6.632;2023-05-24T07:00:40;5.80;;;1.43;;
28529;SDS011;15737;49.760;6.632;2023-05-24T07:03:07;4.60;;;1.27;;
28529;SDS011;15737;49.760;6.632;2023-05-24T07:05:33;2.90;;;1.13;;
28529;SDS011;15737;49.760;6.632;2023-05-24T07:07:59;0.80;;;0.80;;
28529;SDS011;15737;49.760;6.632;2023-05-24T07:10:25;5.57;;;1.23;;
28529;SDS011;15737;49.760;6.632;2023-05-24T07:12:50;1.58;;;1.00;;
28529;SDS011;15737;49.760;6.632;2023-05-24T07:15:16;1.60;;;0.90;;
28529;SDS011;15737;49.760;6.632;2023-05-24T07:17:41;1.90;;;0.93;;
28529;SDS011;15737;49.760;6.632;2023-05-24T07:20:08;2.88;;;1.30;;
28529;SDS011;15737;49.760;6.632;2023-05-24T07:22:35;2.55;;;0.95;;
28529;SDS011;15737;49.760;6.632;2023-05-24T07:25:00;5.75;;;1.52;;
28529;SDS011;15737;49.760;6.632;2023-05-24T07:27:26;3.47;;;1.10;;
28529;SDS011;15737;49.760;6.632;2023-05-24T07:29:52;2.15;;;1.10;;
28529;SDS011;15737;49.760;6.632;2023-05-24T07:32:18;3.90;;;1.30;;
28529;SDS011;15737;49.760;6.632;2023-05-24T07:34:44;3.38;;;1.40;;
28529;SDS011;15737;49.760;6.632;2023-05-24T07:37:09;4.28;;;1.50;;
28529;SDS011;15737;49.760;6.632;2023-05-24T07:39:35;0.65;;;0.65;;
28529;SDS011;15737;49.760;6.632;2023-05-24T07:42:02;1.70;;;0.75;;
28529;SDS011;15737;49.760;6.632;2023-05-24T07:44:27;5.25;;;1.25;;
28529;SDS011;15737;49.760;6.632;2023-05-24T07:46:53;2.20;;;1.10;;
28529;SDS011;15737;49.760;6.632;2023-05-24T07:49:19;2.88;;;0.95;;
28529;SDS011;15737;49.760;6.632;2023-05-24T07:51:46;2.88;;;1.27;;
28529;SDS011;15737;49.760;6.632;2023-05-24T07:54:12;3.97;;;1.42;;
28529;SDS011;15737;49.760;6.632;2023-05-24T07:56:39;7.38;;;1.20;;
28529;SDS011;15737;49.760;6.632;2023-05-24T07:59:05;1.70;;;1.00;;
28529;SDS011;15737;49.760;6.632;2023-05-24T08:01:32;1.95;;;0.82;;
28529;SDS011;15737;49.760;6.632;2023-05-24T08:03:59;3.42;;;1.55;;
28529;SDS011;15737;49.760;6.632;2023-05-24T08:06:28;4.75;;;1.50;;
28529;SDS011;15737;49.760;6.632;2023-05-24T08:08:57;2.83;;;1.10;;
28529;SDS011;15737;49.760;6.632;2023-05-24T08:11:22;2.45;;;1.08;;
28529;SDS011;15737;49.760;6.632;2023-05-24T08:13:48;4.82;;;1.10;;
28529;SDS011;15737;49.760;6.632;2023-05-24T08:16:13;4.15;;;1.23;;
28529;SDS011;15737;49.760;6.632;2023-05-24T08:18:39;2.20;;;1.30;;
28529;SDS011;15737;49.760;6.632;2023-05-24T08:21:05;4.07;;;1.30;;
28529;SDS011;15737;49.760;6.632;2023-05-24T08:23:31;2.60;;;1.02;;
28529;SDS011;15737;49.760;6.632;2023-05-24T08:25:57;2.72;;;1.25;;
28529;SDS011;15737;49.760;6.632;2023-05-24T08:28:24;1.95;;;1.02;;
28529;SDS011;15737;49.760;6.632;2023-05-24T08:30:50;3.28;;;1.00;;
28529;SDS011;15737;49.760;6.632;2023-05-24T08:33:16;2.10;;;1.15;;
28529;SDS011;15737;49.760;6.632;2023-05-24T08:35:41;2.33;;;1.17;;
28529;SDS011;15737;49.760;6.632;2023-05-24T08:38:07;4.75;;;1.25;;
28529;SDS011;15737;49.760;6.632;2023-05-24T08:40:33;2.30;;;0.98;;
28529;SDS011;15737;49.760;6.632;2023-05-24T08:42:59;7.47;;;1.40;;
28529;SDS011;15737;49.760;6.632;2023-05-24T08:45:25;2.53;;;1.05;;
28529;SDS011;15737;49.760;6.632;2023-05-24T08:47:57;5.53;;;1.38;;
28529;SDS011;15737;49.760;6.632;2023-05-24T08:50:23;3.78;;;1.13;;
28529;SDS011;15737;49.760;6.632;2023-05-24T08:52:50;2.35;;;0.90;;
28529;SDS011;15737;49.760;6.632;2023-05-24T08:55:16;4.38;;;1.15;;
28529;SDS011;15737;49.760;6.632;2023-05-24T08:57:43;4.85;;;1.42;;
28529;SDS011;15737;49.760;6.632;2023-05-24T09:00:10;2.00;;;1.10;;
28529;SDS011;15737;49.760;6.632;2023-05-24T09:02:37;1.08;;;1.02;;
28529;SDS011;15737;49.760;6.632;2023-05-24T09:05:04;1.45;;;1.23;;
28529;SDS011;15737;49.760;6.632;2023-05-24T09:07:34;0.70;;;0.60;;
28529;SDS011;15737;49.760;6.632;2023-05-24T09:10:03;1.73;;;0.98;;
28529;SDS011;15737;49.760;6.632;2023-05-24T09:12:30;0.98;;;0.90;;
28529;SDS011;15737;49.760;6.632;2023-05-24T09:14:57;2.88;;;1.23;;
28529;SDS011;15737;49.760;6.632;2023-05-24T09:17:23;1.42;;;0.90;;
28529;SDS011;15737;49.760;6.632;2023-05-24T09:19:53;2.70;;;1.15;;
28529;SDS011;15737;49.760;6.632;2023-05-24T09:22:30;2.10;;;0.95;;
28529;SDS011;15737;49.760;6.632;2023-05-24T09:25:00;4.57;;;1.33;;
28529;SDS011;15737;49.760;6.632;2023-05-24T09:27:26;3.10;;;1.15;;
28529;SDS011;15737;49.760;6.632;2023-05-24T09:29:53;1.60;;;0.98;;
28529;SDS011;15737;49.760;6.632;2023-05-24T09:32:20;2.25;;;1.10;;
28529;SDS011;15737;49.760;6.632;2023-05-24T09:34:48;1.08;;;0.95;;
28529;SDS011;15737;49.760;6.632;2023-05-24T09:37:16;2.47;;;1.05;;
28529;SDS011;15737;49.760;6.632;2023-05-24T09:39:45;2.97;;;1.00;;
28529;SDS011;15737;49.760;6.632;2023-05-24T09:42:18;3.22;;;1.23;;
28529;SDS011;15737;49.760;6.632;2023-05-24T09:44:48;2.90;;;1.10;;
28529;SDS011;15737;49.760;6.632;2023-05-24T09:47:30;3.33;;;1.40;;
28529;SDS011;15737;49.760;6.632;2023-05-24T09:49:57;3.33;;;1.40;;
28529;SDS011;15737;49.760;6.632;2023-05-24T09:52:26;3.33;;;1.30;;
28529;SDS011;15737;49.760;6.632;2023-05-24T09:54:52;3.58;;;1.50;;
28529;SDS011;15737;49.760;6.632;2023-05-24T09:57:18;2.70;;;1.20;;
28529;SDS011;15737;49.760;6.632;2023-05-24T09:59:46;5.22;;;1.60;;
28529;SDS011;15737;49.760;6.632;2023-05-24T10:02:15;1.55;;;1.17;;
28529;SDS011;15737;49.760;6.632;2023-05-24T10:04:44;2.47;;;1.42;;
28529;SDS011;15737;49.760;6.632;2023-05-24T10:07:09;4.30;;;1.27;;
28529;SDS011;15737;49.760;6.632;2023-05-24T10:09:36;4.38;;;0.93;;
28529;SDS011;15737;49.760;6.632;2023-05-24T10:12:02;2.63;;;1.55;;
28529;SDS011;15737;49.760;6.632;2023-05-24T10:14:36;2.08;;;1.17;;
28529;SDS011;15737;49.760;6.632;2023-05-24T10:17:03;2.90;;;1.23;;
28529;SDS011;15737;49.760;6.632;2023-05-24T10:19:29;2.67;;;1.30;;
28529;SDS011;15737;49.760;6.632;2023-05-24T10:21:59;3.05;;;1.33;;
28529;SDS011;15737;49.760;6.632;2023-05-24T10:24:28;2.28;;;1.23;;
28529;SDS011;15737;49.760;6.632;2023-05-24T10:26:57;3.28;;;1.30;;
28529;SDS011;15737;49.760;6.632;2023-05-24T10:29:43;2.05;;;1.20;;
28529;SDS011;15737;49.760;6.632;2023-05-24T10:32:11;4.53;;;1.20;;
28529;SDS011;15737;49.760;6.632;2023-05-24T10:34:39;2.25;;;1.20;;
28529;SDS011;15737;49.760;6.632;2023-05-24T10:37:06;9.38;;;1.88;;
28529;SDS011;15737;49.760;6.632;2023-05-24T10:39:33;4.22;;;1.40;;
28529;SDS011;15737;49.760;6.632;2023-05-24T10:42:03;1.83;;;1.20;;
28529;SDS011;15737;49.760;6.632;2023-05-24T10:44:30;4.47;;;1.50;;
28529;SDS011;15737;49.760;6.632;2023-05-24T10:47:12;3.30;;;1.45;;
28529;SDS011;15737;49.760;6.632;2023-05-24T10:49:49;2.08;;;1.42;;
28529;SDS011;15737;49.760;6.632;2023-05-24T10:52:17;4.15;;;1.52;;
28529;SDS011;15737;49.760;6.632;2023-05-24T10:55:00;2.33;;;1.65;;
28529;SDS011;15737;49.760;6.632;2023-05-24T10:57:33;1.63;;;1.30;;
28529;SDS011;15737;49.760;6.632;2023-05-24T11:02:44;3.40;;;1.23;;
28529;SDS011;15737;49.760;6.632;2023-05-24T11:05:13;1.85;;;1.25;;
28529;SDS011;15737;49.760;6.632;2023-05-24T11:07:42;1.60;;;1.50;;
28529;SDS011;15737;49.760;6.632;2023-05-24T11:10:08;2.03;;;1.40;;
28529;SDS011;15737;49.760;6.632;2023-05-24T11:12:39;2.38;;;1.35;;
28529;SDS011;15737;49.760;6.632;2023-05-24T11:15:07;1.58;;;1.27;;
28529;SDS011;15737;49.760;6.632;2023-05-24T11:18:11;1.63;;;1.45;;
28529;SDS011;15737;49.760;6.632;2023-05-24T11:20:37;2.08;;;1.42;;
28529;SDS011;15737;49.760;6.632;2023-05-24T11:23:04;4.78;;;1.40;;
28529;SDS011;15737;49.760;6.632;2023-05-24T11:25:36;2.10;;;1.35;;
28529;SDS011;15737;49.760;6.632;2023-05-24T11:28:02;2.92;;;1.73;;
28529;SDS011;15737;49.760;6.632;2023-05-24T11:30:37;2.40;;;1.58;;
28529;SDS011;15737;49.760;6.632;2023-05-24T11:33:04;2.72;;;1.50;;
28529;SDS011;15737;49.760;6.632;2023-05-24T11:35:37;5.47;;;1.95;;
28529;SDS011;15737;49.760;6.632;2023-05-24T11:38:03;3.28;;;1.80;;
28529;SDS011;15737;49.760;6.632;2023-05-24T11:40:34;2.00;;;1.60;;
28529;SDS011;15737;49.760;6.632;2023-05-24T11:42:59;7.68;;;1.92;;
28529;SDS011;15737;49.760;6.632;2023-05-24T11:45:27;4.00;;;1.73;;
28529;SDS011;15737;49.760;6.632;2023-05-24T11:47:54;1.67;;;1.40;;
28529;SDS011;15737;49.760;6.632;2023-05-24T11:50:23;2.03;;;1.63;;
28529;SDS011;15737;49.760;6.632;2023-05-24T11:52:48;2.30;;;1.40;;
28529;SDS011;15737;49.760;6.632;2023-05-24T11:55:14;1.73;;;1.42;;
28529;SDS011;15737;49.760;6.632;2023-05-24T11:57:50;1.45;;;1.35;;
28529;SDS011;15737;49.760;6.632;2023-05-24T12:00:24;2.05;;;1.30;;
28529;SDS011;15737;49.760;6.632;2023-05-24T12:02:50;2.47;;;1.52;;
28529;SDS011;15737;49.760;6.632;2023-05-24T12:05:17;3.25;;;1.45;;
28529;SDS011;15737;49.760;6.632;2023-05-24T12:07:43;3.65;;;1.75;;
28529;SDS011;15737;49.760;6.632;2023-05-24T12:10:15;4.15;;;1.70;;
28529;SDS011;15737;49.760;6.632;2023-05-24T12:12:41;3.00;;;1.40;;
28529;SDS011;15737;49.760;6.632;2023-05-24T12:15:10;3.08;;;1.55;;
28529;SDS011;15737;49.760;6.632;2023-05-24T12:17:36;2.08;;;1.33;;
28529;SDS011;15737;49.760;6.632;2023-05-24T12:20:02;2.63;;;1.65;;
28529;SDS011;15737;49.760;6.632;2023-05-24T12:22:30;2.85;;;1.65;;
28529;SDS011;15737;49.760;6.632;2023-05-24T12:24:55;4.20;;;1.88;;
28529;SDS011;15737;49.760;6.632;2023-05-24T12:27:25;5.55;;;1.65;;
28529;SDS011;15737;49.760;6.632;2023-05-24T12:29:51;4.13;;;2.05;;
28529;SDS011;15737;49.760;6.632;2023-05-24T12:32:17;1.52;;;1.42;;
28529;SDS011;15737;49.760;6.632;2023-05-24T12:34:43;5.88;;;1.60;;
28529;SDS011;15737;49.760;6.632;2023-05-24T12:37:09;2.80;;;1.75;;
28529;SDS011;15737;49.760;6.632;2023-05-24T12:39:36;2.10;;;1.58;;
28529;SDS011;15737;49.760;6.632;2023-05-24T12:42:02;2.80;;;1.92;;
28529;SDS011;15737;49.760;6.632;2023-05-24T12:44:29;3.22;;;2.03;;
28529;SDS011;15737;49.760;6.632;2023-05-24T12:47:03;3.95;;;2.08;;
28529;SDS011;15737;49.760;6.632;2023-05-24T12:49:30;2.20;;;2.00;;
28529;SDS011;15737;49.760;6.632;2023-05-24T12:51:57;3.45;;;2.42;;
28529;SDS011;15737;49.760;6.632;2023-05-24T12:54:24;3.55;;;2.50;;
28529;SDS011;15737;49.760;6.632;2023-05-24T12:56:51;3.33;;;2.55;;
28529;SDS011;15737;49.760;6.632;2023-05-24T12:59:17;1.67;;;1.60;;
28529;SDS011;15737;49.760;6.632;2023-05-24T13:01:43;3.22;;;2.80;;
28529;SDS011;15737;49.760;6.632;2023-05-24T13:04:14;3.17;;;2.17;;
28529;SDS011;15737;49.760;6.632;2023-05-24T13:06:41;3.35;;;2.90;;
28529;SDS011;15737;49.760;6.632;2023-05-24T13:09:07;3.33;;;2.60;;
28529;SDS011;15737;49.760;6.632;2023-05-24T13:11:32;4.10;;;3.00;;
28529;SDS011;15737;49.760;6.632;2023-05-24T13:13:58;4.30;;;2.90;;
28529;SDS011;15737;49.760;6.632;2023-05-24T13:16:23;3.47;;;3.15;;
28529;SDS011;15737;49.760;6.632;2023-05-24T13:18:49;5.80;;;2.65;;
28529;SDS011;15737;49.760;6.632;2023-05-24T13:21:15;3.83;;;2.88;;
28529;SDS011;15737;49.760;6.632;2023-05-24T13:23:41;3.53;;;2.85;;
28529;SDS011;15737;49.760;6.632;2023-05-24T13:26:07;4.13;;;3.50;;
28529;SDS011;15737;49.760;6.632;2023-05-24T13:28:33;5.50;;;3.03;;
28529;SDS011;15737;49.760;6.632;2023-05-24T13:30:59;3.50;;;2.92;;
28529;SDS011;15737;49.760;6.632;2023-05-24T13:33:24;4.85;;;3.30;;
28529;SDS011;15737;49.760;6.632;2023-05-24T13:35:51;5.72;;;3.75;;
28529;SDS011;15737;49.760;6.632;2023-05-24T13:38:17;3.92;;;3.13;;
28529;SDS011;15737;49.760;6.632;2023-05-24T13:40:43;4.85;;;2.95;;
28529;SDS011;15737;49.760;6.632;2023-05-24T13:43:09;8.10;;;3.20;;
28529;SDS011;15737;49.760;6.632;2023-05-24T13:45:35;4.05;;;3.10;;
28529;SDS011;15737;49.760;6.632;2023-05-24T13:48:00;6.07;;;3.50;;
28529;SDS011;15737;49.760;6.632;2023-05-24T13:50:29;4.53;;;3.03;;
28529;SDS011;15737;49.760;6.632;2023-05-24T13:52:59;5.05;;;3.05;;
28529;SDS011;15737;49.760;6.632;2023-05-24T13:55:26;6.03;;;2.80;;
28529;SDS011;15737;49.760;6.632;2023-05-24T13:57:53;5.10;;;2.35;;
28529;SDS011;15737;49.760;6.632;2023-05-24T14:00:19;3.42;;;2.50;;
28529;SDS011;15737;49.760;6.632;2023-05-24T14:02:46;2.38;;;2.17;;
28529;SDS011;15737;49.760;6.632;2023-05-24T14:05:12;4.35;;;2.28;;
28529;SDS011;15737;49.760;6.632;2023-05-24T14:07:37;3.40;;;2.30;;
28529;SDS011;15737;49.760;6.632;2023-05-24T14:10:03;3.92;;;2.03;;
28529;SDS011;15737;49.760;6.632;2023-05-24T14:12:29;3.00;;;2.05;;
28529;SDS011;15737;49.760;6.632;2023-05-24T14:14:55;2.95;;;2.10;;
28529;SDS011;15737;49.760;6.632;2023-05-24T14:17:21;2.05;;;1.88;;
28529;SDS011;15737;49.760;6.632;2023-05-24T14:19:47;2.63;;;1.50;;
28529;SDS011;15737;49.760;6.632;2023-05-24T14:22:12;4.72;;;2.35;;
28529;SDS011;15737;49.760;6.632;2023-05-24T14:24:38;3.17;;;1.90;;
28529;SDS011;15737;49.760;6.632;2023-05-24T14:27:03;3.55;;;1.70;;
28529;SDS011;15737;49.760;6.632;2023-05-24T14:29:30;4.07;;;2.50;;
28529;SDS011;15737;49.760;6.632;2023-05-24T14:31:56;3.97;;;1.88;;
28529;SDS011;15737;49.760;6.632;2023-05-24T14:34:22;4.35;;;1.90;;
28529;SDS011;15737;49.760;6.632;2023-05-24T14:36:47;2.15;;;1.80;;
28529;SDS011;15737;49.760;6.632;2023-05-24T14:39:13;5.60;;;1.85;;
28529;SDS011;15737;49.760;6.632;2023-05-24T14:41:38;5.35;;;1.40;;
28529;SDS011;15737;49.760;6.632;2023-05-24T14:44:04;5.07;;;1.98;;
28529;SDS011;15737;49.760;6.632;2023-05-24T14:46:29;2.90;;;1.92;;
28529;SDS011;15737;49.760;6.632;2023-05-24T14:48:55;3.78;;;2.10;;
28529;SDS011;15737;49.760;6.632;2023-05-24T14:51:20;5.40;;;1.90;;
28529;SDS011;15737;49.760;6.632;2023-05-24T14:53:46;3.08;;;2.17;;
28529;SDS011;15737;49.760;6.632;2023-05-24T14:56:11;3.75;;;1.83;;
28529;SDS011;15737;49.760;6.632;2023-05-24T14:58:39;6.57;;;2.30;;
28529;SDS011;15737;49.760;6.632;2023-05-24T15:01:05;3.25;;;1.85;;